sensor_id;sensor_type;location;lat;lon;timestamp;P1;durP1;ratioP1;P2;durP2;ratioP2
68858;SDS011;55864;49.238;8.092;2024-01-30T00:00:46;9.67;;;4.60;;
68858;SDS011;55864;49.238;8.092;2024-01-30T00:02:47;9.53;;;4.50;;
68858;SDS011;55864;49.238;8.092;2024-01-30T00:04:47;10.80;;;4.87;;
68858;SDS011;55864;49.238;8.092;2024-01-30T00:06:48;11.13;;;4.50;;
68858;SDS011;55864;49.238;8.092;2024-01-30T00:08:49;10.70;;;4.27;;
68858;SDS011;55864;49.238;8.092;2024-01-30T00:10:51;12.63;;;4.20;;
68858;SDS011;55864;49.238;8.092;2024-01-30T00:12:51;14.70;;;4.80;;
68858;SDS011;55864;49.238;8.092;2024-01-30T00:14:52;12.30;;;5.13;;
68858;SDS011;55864;49.238;8.092;2024-01-30T00:16:52;11.53;;;5.00;;
68858;SDS011;55864;49.238;8.092;2024-01-30T00:18:53;15.77;;;5.70;;
68858;SDS011;55864;49.238;8.092;2024-01-30T00:20:53;13.33;;;5.43;;
68858;SDS011;55864;49.238;8.092;2024-01-30T00:22:54;11.87;;;5.00;;
68858;SDS011;55864;49.238;8.092;2024-01-30T00:24:54;12.00;;;5.10;;
68858;SDS011;55864;49.238;8.092;2024-01-30T00:26:56;10.50;;;4.77;;
68858;SDS011;55864;49.238;8.092;2024-01-30T00:28:57;11.17;;;5.03;;
68858;SDS011;55864;49.238;8.092;2024-01-30T00:30:57;12.13;;;5.00;;
68858;SDS011;55864;49.238;8.092;2024-01-30T00:32:58;15.30;;;5.03;;
68858;SDS011;55864;49.238;8.092;2024-01-30T00:34:58;11.23;;;4.70;;
68858;SDS011;55864;49.238;8.092;2024-01-30T00:36:59;12.57;;;4.43;;
68858;SDS011;55864;49.238;8.092;2024-01-30T00:38:59;12.30;;;4.63;;
68858;SDS011;55864;49.238;8.092;2024-01-30T00:41:00;11.27;;;4.20;;
68858;SDS011;55864;49.238;8.092;2024-01-30T00:43:02;9.70;;;4.40;;
68858;SDS011;55864;49.238;8.092;2024-01-30T00:45:03;14.23;;;4.70;;
68858;SDS011;55864;49.238;8.092;2024-01-30T00:47:04;11.63;;;5.00;;
68858;SDS011;55864;49.238;8.092;2024-01-30T00:49:05;10.67;;;4.30;;
68858;SDS011;55864;49.238;8.092;2024-01-30T00:51:05;11.83;;;4.93;;
68858;SDS011;55864;49.238;8.092;2024-01-30T00:53:06;13.07;;;4.47;;
68858;SDS011;55864;49.238;8.092;2024-01-30T00:55:06;9.77;;;4.30;;
68858;SDS011;55864;49.238;8.092;2024-01-30T00:57:07;13.30;;;5.00;;
68858;SDS011;55864;49.238;8.092;2024-01-30T00:59:09;12.40;;;5.47;;
68858;SDS011;55864;49.238;8.092;2024-01-30T01:03:11;12.60;;;5.17;;
68858;SDS011;55864;49.238;8.092;2024-01-30T01:05:12;13.53;;;5.07;;
68858;SDS011;55864;49.238;8.092;2024-01-30T01:07:13;12.03;;;4.50;;
68858;SDS011;55864;49.238;8.092;2024-01-30T01:09:13;12.90;;;4.43;;
68858;SDS011;55864;49.238;8.092;2024-01-30T01:11:14;11.77;;;4.67;;
68858;SDS011;55864;49.238;8.092;2024-01-30T01:13:14;9.67;;;4.13;;
68858;SDS011;55864;49.238;8.092;2024-01-30T01:15:16;11.77;;;4.07;;
68858;SDS011;55864;49.238;8.092;2024-01-30T01:17:17;8.83;;;3.93;;
68858;SDS011;55864;49.238;8.092;2024-01-30T01:19:17;8.53;;;3.73;;
68858;SDS011;55864;49.238;8.092;2024-01-30T01:21:18;9.93;;;4.23;;
68858;SDS011;55864;49.238;8.092;2024-01-30T01:23:18;9.50;;;4.03;;
68858;SDS011;55864;49.238;8.092;2024-01-30T01:25:19;8.17;;;3.90;;
68858;SDS011;55864;49.238;8.092;2024-01-30T01:27:19;9.30;;;3.93;;
68858;SDS011;55864;49.238;8.092;2024-01-30T01:29:20;8.97;;;3.83;;
68858;SDS011;55864;49.238;8.092;2024-01-30T01:31:22;9.03;;;3.83;;
68858;SDS011;55864;49.238;8.092;2024-01-30T01:33:22;8.70;;;3.63;;
68858;SDS011;55864;49.238;8.092;2024-01-30T01:35:23;10.90;;;4.20;;
68858;SDS011;55864;49.238;8.092;2024-01-30T01:37:24;10.93;;;4.30;;
68858;SDS011;55864;49.238;8.092;2024-01-30T01:39:24;10.73;;;3.97;;
68858;SDS011;55864;49.238;8.092;2024-01-30T01:41:25;7.97;;;3.60;;
68858;SDS011;55864;49.238;8.092;2024-01-30T01:43:30;8.53;;;3.73;;
68858;SDS011;55864;49.238;8.092;2024-01-30T01:45:31;8.30;;;3.67;;
68858;SDS011;55864;49.238;8.092;2024-01-30T01:47:33;10.67;;;3.67;;
68858;SDS011;55864;49.238;8.092;2024-01-30T01:49:33;8.60;;;3.80;;
68858;SDS011;55864;49.238;8.092;2024-01-30T01:51:35;11.77;;;3.90;;
68858;SDS011;55864;49.238;8.092;2024-01-30T01:53:36;10.23;;;3.70;;
68858;SDS011;55864;49.238;8.092;2024-01-30T01:55:37;8.03;;;3.50;;
68858;SDS011;55864;49.238;8.092;2024-01-30T01:57:37;11.17;;;3.87;;
68858;SDS011;55864;49.238;8.092;2024-01-30T01:59:38;9.23;;;3.80;;
68858;SDS011;55864;49.238;8.092;2024-01-30T02:01:39;9.17;;;3.70;;
68858;SDS011;55864;49.238;8.092;2024-01-30T02:03:41;9.17;;;3.93;;
68858;SDS011;55864;49.238;8.092;2024-01-30T02:05:41;8.03;;;4.00;;
68858;SDS011;55864;49.238;8.092;2024-01-30T02:07:42;9.00;;;3.90;;
68858;SDS011;55864;49.238;8.092;2024-01-30T02:09:43;10.40;;;4.27;;
68858;SDS011;55864;49.238;8.092;2024-01-30T02:11:44;10.13;;;4.37;;
68858;SDS011;55864;49.238;8.092;2024-01-30T02:13:45;9.57;;;4.10;;
68858;SDS011;55864;49.238;8.092;2024-01-30T02:15:48;9.53;;;4.37;;
68858;SDS011;55864;49.238;8.092;2024-01-30T02:17:49;9.87;;;4.67;;
68858;SDS011;55864;49.238;8.092;2024-01-30T02:19:51;11.07;;;3.90;;
68858;SDS011;55864;49.238;8.092;2024-01-30T02:21:53;10.97;;;3.83;;
68858;SDS011;55864;49.238;8.092;2024-01-30T02:23:54;9.33;;;3.80;;
68858;SDS011;55864;49.238;8.092;2024-01-30T02:25:55;9.17;;;3.90;;
68858;SDS011;55864;49.238;8.092;2024-01-30T02:27:55;11.03;;;4.20;;
68858;SDS011;55864;49.238;8.092;2024-01-30T02:29:56;10.77;;;4.27;;
68858;SDS011;55864;49.238;8.092;2024-01-30T02:31:57;8.97;;;4.00;;
68858;SDS011;55864;49.238;8.092;2024-01-30T02:33:57;8.57;;;3.67;;
68858;SDS011;55864;49.238;8.092;2024-01-30T02:35:58;9.30;;;4.40;;
68858;SDS011;55864;49.238;8.092;2024-01-30T02:37:59;10.37;;;4.27;;
68858;SDS011;55864;49.238;8.092;2024-01-30T02:40:00;9.40;;;4.10;;
68858;SDS011;55864;49.238;8.092;2024-01-30T02:42:00;9.60;;;4.10;;
68858;SDS011;55864;49.238;8.092;2024-01-30T02:44:01;9.93;;;4.20;;
68858;SDS011;55864;49.238;8.092;2024-01-30T02:46:02;9.00;;;4.10;;
68858;SDS011;55864;49.238;8.092;2024-01-30T02:48:03;11.17;;;4.90;;
68858;SDS011;55864;49.238;8.092;2024-01-30T02:50:04;10.00;;;4.80;;
68858;SDS011;55864;49.238;8.092;2024-01-30T02:52:05;10.27;;;4.50;;
68858;SDS011;55864;49.238;8.092;2024-01-30T02:54:07;10.70;;;4.50;;
68858;SDS011;55864;49.238;8.092;2024-01-30T02:56:08;10.57;;;4.90;;
68858;SDS011;55864;49.238;8.092;2024-01-30T02:58:08;12.77;;;4.63;;
68858;SDS011;55864;49.238;8.092;2024-01-30T03:00:09;11.40;;;4.43;;
68858;SDS011;55864;49.238;8.092;2024-01-30T03:02:10;11.07;;;4.63;;
68858;SDS011;55864;49.238;8.092;2024-01-30T03:04:11;10.33;;;4.57;;
68858;SDS011;55864;49.238;8.092;2024-01-30T03:06:11;12.20;;;5.70;;
68858;SDS011;55864;49.238;8.092;2024-01-30T03:08:12;10.67;;;5.17;;
68858;SDS011;55864;49.238;8.092;2024-01-30T03:10:14;12.97;;;5.63;;
68858;SDS011;55864;49.238;8.092;2024-01-30T03:12:14;14.43;;;6.10;;
68858;SDS011;55864;49.238;8.092;2024-01-30T03:14:15;12.93;;;6.20;;
68858;SDS011;55864;49.238;8.092;2024-01-30T03:16:15;11.43;;;5.67;;
68858;SDS011;55864;49.238;8.092;2024-01-30T03:18:16;14.17;;;6.03;;
68858;SDS011;55864;49.238;8.092;2024-01-30T03:20:16;13.57;;;6.47;;
68858;SDS011;55864;49.238;8.092;2024-01-30T03:22:17;13.60;;;6.20;;
68858;SDS011;55864;49.238;8.092;2024-01-30T03:24:17;12.00;;;5.70;;
68858;SDS011;55864;49.238;8.092;2024-01-30T03:26:19;13.40;;;5.87;;
68858;SDS011;55864;49.238;8.092;2024-01-30T03:28:20;13.67;;;6.00;;
68858;SDS011;55864;49.238;8.092;2024-01-30T03:30:20;12.47;;;5.83;;
68858;SDS011;55864;49.238;8.092;2024-01-30T03:32:21;11.57;;;5.10;;
68858;SDS011;55864;49.238;8.092;2024-01-30T03:34:21;16.37;;;6.53;;
68858;SDS011;55864;49.238;8.092;2024-01-30T03:36:22;14.70;;;6.00;;
68858;SDS011;55864;49.238;8.092;2024-01-30T03:38:22;11.97;;;5.50;;
68858;SDS011;55864;49.238;8.092;2024-01-30T03:40:23;11.87;;;5.40;;
68858;SDS011;55864;49.238;8.092;2024-01-30T03:42:25;12.57;;;5.90;;
68858;SDS011;55864;49.238;8.092;2024-01-30T03:44:25;15.63;;;5.73;;
68858;SDS011;55864;49.238;8.092;2024-01-30T03:46:26;11.83;;;5.67;;
68858;SDS011;55864;49.238;8.092;2024-01-30T03:48:26;12.00;;;5.43;;
68858;SDS011;55864;49.238;8.092;2024-01-30T03:50:27;12.20;;;4.97;;
68858;SDS011;55864;49.238;8.092;2024-01-30T03:52:27;11.17;;;5.23;;
68858;SDS011;55864;49.238;8.092;2024-01-30T03:54:28;10.97;;;5.47;;
68858;SDS011;55864;49.238;8.092;2024-01-30T03:56:28;13.07;;;5.20;;
68858;SDS011;55864;49.238;8.092;2024-01-30T03:58:30;12.67;;;5.60;;
68858;SDS011;55864;49.238;8.092;2024-01-30T04:00:31;13.77;;;5.47;;
68858;SDS011;55864;49.238;8.092;2024-01-30T04:02:31;13.07;;;5.30;;
68858;SDS011;55864;49.238;8.092;2024-01-30T04:04:32;11.27;;;4.97;;
68858;SDS011;55864;49.238;8.092;2024-01-30T04:06:33;11.20;;;5.53;;
68858;SDS011;55864;49.238;8.092;2024-01-30T04:08:33;12.37;;;4.93;;
68858;SDS011;55864;49.238;8.092;2024-01-30T04:10:34;14.97;;;5.97;;
68858;SDS011;55864;49.238;8.092;2024-01-30T04:12:34;12.27;;;5.47;;
68858;SDS011;55864;49.238;8.092;2024-01-30T04:14:37;11.90;;;5.40;;
68858;SDS011;55864;49.238;8.092;2024-01-30T04:16:38;13.32;;;5.30;;
68858;SDS011;55864;49.238;8.092;2024-01-30T04:18:39;11.63;;;5.27;;
68858;SDS011;55864;49.238;8.092;2024-01-30T04:20:39;13.13;;;5.40;;
68858;SDS011;55864;49.238;8.092;2024-01-30T04:22:40;11.37;;;5.33;;
68858;SDS011;55864;49.238;8.092;2024-01-30T04:24:40;13.47;;;5.47;;
68858;SDS011;55864;49.238;8.092;2024-01-30T04:26:41;11.87;;;5.67;;
68858;SDS011;55864;49.238;8.092;2024-01-30T04:28:41;12.43;;;5.40;;
68858;SDS011;55864;49.238;8.092;2024-01-30T04:30:43;12.10;;;5.10;;
68858;SDS011;55864;49.238;8.092;2024-01-30T04:32:44;12.53;;;5.67;;
68858;SDS011;55864;49.238;8.092;2024-01-30T04:34:44;11.77;;;5.20;;
68858;SDS011;55864;49.238;8.092;2024-01-30T04:36:45;11.40;;;5.17;;
68858;SDS011;55864;49.238;8.092;2024-01-30T04:38:45;15.40;;;5.50;;
68858;SDS011;55864;49.238;8.092;2024-01-30T04:40:46;12.23;;;5.57;;
68858;SDS011;55864;49.238;8.092;2024-01-30T04:42:46;11.00;;;5.23;;
68858;SDS011;55864;49.238;8.092;2024-01-30T04:44:47;12.80;;;5.57;;
68858;SDS011;55864;49.238;8.092;2024-01-30T04:46:49;13.50;;;5.47;;
68858;SDS011;55864;49.238;8.092;2024-01-30T04:48:49;12.47;;;4.97;;
68858;SDS011;55864;49.238;8.092;2024-01-30T04:50:50;11.17;;;4.80;;
68858;SDS011;55864;49.238;8.092;2024-01-30T04:52:50;9.53;;;4.50;;
68858;SDS011;55864;49.238;8.092;2024-01-30T04:54:51;9.87;;;4.40;;
68858;SDS011;55864;49.238;8.092;2024-01-30T04:56:51;11.37;;;4.70;;
68858;SDS011;55864;49.238;8.092;2024-01-30T04:58:52;10.97;;;4.97;;
68858;SDS011;55864;49.238;8.092;2024-01-30T05:00:53;9.93;;;4.30;;
68858;SDS011;55864;49.238;8.092;2024-01-30T05:02:55;10.33;;;4.77;;
68858;SDS011;55864;49.238;8.092;2024-01-30T05:04:56;11.50;;;4.65;;
68858;SDS011;55864;49.238;8.092;2024-01-30T05:06:57;8.80;;;4.30;;
68858;SDS011;55864;49.238;8.092;2024-01-30T05:08:57;10.20;;;4.17;;
68858;SDS011;55864;49.238;8.092;2024-01-30T05:10:59;10.00;;;4.30;;
68858;SDS011;55864;49.238;8.092;2024-01-30T05:13:00;9.17;;;3.80;;
68858;SDS011;55864;49.238;8.092;2024-01-30T05:15:01;9.90;;;4.20;;
68858;SDS011;55864;49.238;8.092;2024-01-30T05:17:01;8.93;;;4.23;;
68858;SDS011;55864;49.238;8.092;2024-01-30T05:19:03;10.10;;;4.30;;
68858;SDS011;55864;49.238;8.092;2024-01-30T05:21:05;9.23;;;4.50;;
68858;SDS011;55864;49.238;8.092;2024-01-30T05:23:06;10.60;;;4.50;;
68858;SDS011;55864;49.238;8.092;2024-01-30T05:25:07;11.17;;;4.43;;
68858;SDS011;55864;49.238;8.092;2024-01-30T05:27:08;9.33;;;4.30;;
68858;SDS011;55864;49.238;8.092;2024-01-30T05:29:08;11.90;;;4.10;;
68858;SDS011;55864;49.238;8.092;2024-01-30T05:31:09;9.50;;;4.40;;
68858;SDS011;55864;49.238;8.092;2024-01-30T05:33:09;9.97;;;3.90;;
68858;SDS011;55864;49.238;8.092;2024-01-30T05:35:11;8.93;;;4.40;;
68858;SDS011;55864;49.238;8.092;2024-01-30T05:37:12;10.80;;;4.50;;
68858;SDS011;55864;49.238;8.092;2024-01-30T05:39:12;10.00;;;4.20;;
68858;SDS011;55864;49.238;8.092;2024-01-30T05:41:13;10.67;;;4.60;;
68858;SDS011;55864;49.238;8.092;2024-01-30T05:43:13;11.07;;;4.40;;
68858;SDS011;55864;49.238;8.092;2024-01-30T05:45:14;9.47;;;3.93;;
68858;SDS011;55864;49.238;8.092;2024-01-30T05:47:15;10.77;;;4.17;;
68858;SDS011;55864;49.238;8.092;2024-01-30T05:49:15;10.30;;;4.23;;
68858;SDS011;55864;49.238;8.092;2024-01-30T05:51:17;9.40;;;4.10;;
68858;SDS011;55864;49.238;8.092;2024-01-30T05:53:17;9.57;;;4.17;;
68858;SDS011;55864;49.238;8.092;2024-01-30T05:55:18;9.93;;;4.50;;
68858;SDS011;55864;49.238;8.092;2024-01-30T05:57:19;9.13;;;3.97;;
68858;SDS011;55864;49.238;8.092;2024-01-30T05:59:19;11.63;;;4.70;;
68858;SDS011;55864;49.238;8.092;2024-01-30T06:01:20;10.40;;;4.30;;
68858;SDS011;55864;49.238;8.092;2024-01-30T06:03:20;9.90;;;4.53;;
68858;SDS011;55864;49.238;8.092;2024-01-30T06:05:21;9.97;;;4.80;;
68858;SDS011;55864;49.238;8.092;2024-01-30T06:07:23;10.17;;;4.33;;
68858;SDS011;55864;49.238;8.092;2024-01-30T06:09:23;10.97;;;4.13;;
68858;SDS011;55864;49.238;8.092;2024-01-30T06:11:24;10.53;;;4.03;;
68858;SDS011;55864;49.238;8.092;2024-01-30T06:13:24;9.40;;;3.93;;
68858;SDS011;55864;49.238;8.092;2024-01-30T06:15:25;9.90;;;4.30;;
68858;SDS011;55864;49.238;8.092;2024-01-30T06:17:25;10.63;;;4.73;;
68858;SDS011;55864;49.238;8.092;2024-01-30T06:19:26;10.43;;;4.53;;
68858;SDS011;55864;49.238;8.092;2024-01-30T06:21:26;9.63;;;3.87;;
68858;SDS011;55864;49.238;8.092;2024-01-30T06:23:28;9.80;;;4.10;;
68858;SDS011;55864;49.238;8.092;2024-01-30T06:25:29;8.83;;;3.90;;
68858;SDS011;55864;49.238;8.092;2024-01-30T06:27:29;10.17;;;4.20;;
68858;SDS011;55864;49.238;8.092;2024-01-30T06:29:30;10.03;;;3.97;;
68858;SDS011;55864;49.238;8.092;2024-01-30T06:31:30;10.00;;;4.10;;
68858;SDS011;55864;49.238;8.092;2024-01-30T06:33:31;9.43;;;4.30;;
68858;SDS011;55864;49.238;8.092;2024-01-30T06:35:31;11.47;;;4.30;;
68858;SDS011;55864;49.238;8.092;2024-01-30T06:37:32;11.23;;;4.97;;
68858;SDS011;55864;49.238;8.092;2024-01-30T06:39:34;12.70;;;5.13;;
68858;SDS011;55864;49.238;8.092;2024-01-30T06:41:34;10.77;;;5.03;;
68858;SDS011;55864;49.238;8.092;2024-01-30T06:43:35;12.80;;;5.63;;
68858;SDS011;55864;49.238;8.092;2024-01-30T06:45:36;13.17;;;5.20;;
68858;SDS011;55864;49.238;8.092;2024-01-30T06:47:36;14.67;;;5.77;;
68858;SDS011;55864;49.238;8.092;2024-01-30T06:49:37;9.50;;;4.70;;
68858;SDS011;55864;49.238;8.092;2024-01-30T06:51:37;12.70;;;5.07;;
68858;SDS011;55864;49.238;8.092;2024-01-30T06:53:38;11.23;;;4.77;;
68858;SDS011;55864;49.238;8.092;2024-01-30T06:55:40;13.10;;;5.50;;
68858;SDS011;55864;49.238;8.092;2024-01-30T06:57:40;12.33;;;6.20;;
68858;SDS011;55864;49.238;8.092;2024-01-30T06:59:41;11.80;;;5.60;;
68858;SDS011;55864;49.238;8.092;2024-01-30T07:01:41;10.73;;;4.80;;
68858;SDS011;55864;49.238;8.092;2024-01-30T07:03:42;8.40;;;4.37;;
68858;SDS011;55864;49.238;8.092;2024-01-30T07:05:43;14.23;;;4.57;;
68858;SDS011;55864;49.238;8.092;2024-01-30T07:07:43;10.70;;;4.50;;
68858;SDS011;55864;49.238;8.092;2024-01-30T07:09:44;15.57;;;4.40;;
68858;SDS011;55864;49.238;8.092;2024-01-30T07:11:46;12.43;;;4.10;;
68858;SDS011;55864;49.238;8.092;2024-01-30T07:13:46;13.57;;;3.90;;
68858;SDS011;55864;49.238;8.092;2024-01-30T07:15:47;9.60;;;4.07;;
68858;SDS011;55864;49.238;8.092;2024-01-30T07:17:48;10.60;;;3.90;;
68858;SDS011;55864;49.238;8.092;2024-01-30T07:19:48;8.30;;;3.87;;
68858;SDS011;55864;49.238;8.092;2024-01-30T07:21:49;10.90;;;4.47;;
68858;SDS011;55864;49.238;8.092;2024-01-30T07:23:49;9.57;;;4.07;;
68858;SDS011;55864;49.238;8.092;2024-01-30T07:25:50;9.30;;;4.13;;
68858;SDS011;55864;49.238;8.092;2024-01-30T07:27:52;9.50;;;3.73;;
68858;SDS011;55864;49.238;8.092;2024-01-30T07:29:52;8.33;;;3.77;;
68858;SDS011;55864;49.238;8.092;2024-01-30T07:31:53;9.20;;;4.20;;
68858;SDS011;55864;49.238;8.092;2024-01-30T07:33:53;8.93;;;3.77;;
68858;SDS011;55864;49.238;8.092;2024-01-30T07:35:54;17.40;;;6.90;;
68858;SDS011;55864;49.238;8.092;2024-01-30T07:37:54;21.93;;;9.17;;
68858;SDS011;55864;49.238;8.092;2024-01-30T07:39:56;15.97;;;7.03;;
68858;SDS011;55864;49.238;8.092;2024-01-30T07:41:57;14.10;;;6.33;;
68858;SDS011;55864;49.238;8.092;2024-01-30T07:43:59;16.00;;;5.40;;
68858;SDS011;55864;49.238;8.092;2024-01-30T07:45:59;13.10;;;5.00;;
68858;SDS011;55864;49.238;8.092;2024-01-30T07:48:00;11.20;;;4.40;;
68858;SDS011;55864;49.238;8.092;2024-01-30T07:50:00;16.90;;;5.07;;
68858;SDS011;55864;49.238;8.092;2024-01-30T07:52:01;13.63;;;4.37;;
68858;SDS011;55864;49.238;8.092;2024-01-30T07:54:02;11.07;;;4.30;;
68858;SDS011;55864;49.238;8.092;2024-01-30T07:56:02;11.40;;;3.90;;
68858;SDS011;55864;49.238;8.092;2024-01-30T07:58:03;10.23;;;4.30;;
68858;SDS011;55864;49.238;8.092;2024-01-30T08:00:06;13.50;;;4.13;;
68858;SDS011;55864;49.238;8.092;2024-01-30T08:02:07;10.05;;;4.40;;
68858;SDS011;55864;49.238;8.092;2024-01-30T08:04:07;15.17;;;4.43;;
68858;SDS011;55864;49.238;8.092;2024-01-30T08:06:09;17.97;;;4.80;;
68858;SDS011;55864;49.238;8.092;2024-01-30T08:08:09;10.17;;;4.30;;
68858;SDS011;55864;49.238;8.092;2024-01-30T08:10:11;9.23;;;4.27;;
68858;SDS011;55864;49.238;8.092;2024-01-30T08:12:12;10.30;;;3.93;;
68858;SDS011;55864;49.238;8.092;2024-01-30T08:14:12;10.60;;;3.80;;
68858;SDS011;55864;49.238;8.092;2024-01-30T08:16:14;8.00;;;3.90;;
68858;SDS011;55864;49.238;8.092;2024-01-30T08:18:15;9.13;;;4.37;;
68858;SDS011;55864;49.238;8.092;2024-01-30T08:20:15;9.77;;;4.50;;
68858;SDS011;55864;49.238;8.092;2024-01-30T08:22:16;9.67;;;4.77;;
68858;SDS011;55864;49.238;8.092;2024-01-30T08:24:16;12.50;;;4.60;;
68858;SDS011;55864;49.238;8.092;2024-01-30T08:26:17;11.60;;;4.87;;
68858;SDS011;55864;49.238;8.092;2024-01-30T08:28:18;11.40;;;4.60;;
68858;SDS011;55864;49.238;8.092;2024-01-30T08:30:18;10.03;;;4.33;;
68858;SDS011;55864;49.238;8.092;2024-01-30T08:32:20;9.93;;;4.67;;
68858;SDS011;55864;49.238;8.092;2024-01-30T08:34:21;13.63;;;4.80;;
68858;SDS011;55864;49.238;8.092;2024-01-30T08:36:21;11.17;;;4.50;;
68858;SDS011;55864;49.238;8.092;2024-01-30T08:38:22;12.70;;;4.47;;
68858;SDS011;55864;49.238;8.092;2024-01-30T08:40:22;11.83;;;4.40;;
68858;SDS011;55864;49.238;8.092;2024-01-30T08:42:23;11.63;;;4.80;;
68858;SDS011;55864;49.238;8.092;2024-01-30T08:44:23;9.90;;;4.70;;
68858;SDS011;55864;49.238;8.092;2024-01-30T08:46:24;8.50;;;4.50;;
68858;SDS011;55864;49.238;8.092;2024-01-30T08:48:26;12.73;;;5.77;;
68858;SDS011;55864;49.238;8.092;2024-01-30T08:50:26;9.97;;;4.77;;
68858;SDS011;55864;49.238;8.092;2024-01-30T08:52:27;9.47;;;5.33;;
68858;SDS011;55864;49.238;8.092;2024-01-30T08:54:27;16.87;;;7.33;;
68858;SDS011;55864;49.238;8.092;2024-01-30T08:56:28;18.53;;;8.17;;
68858;SDS011;55864;49.238;8.092;2024-01-30T08:58:28;19.40;;;9.73;;
68858;SDS011;55864;49.238;8.092;2024-01-30T09:00:29;13.90;;;7.17;;
68858;SDS011;55864;49.238;8.092;2024-01-30T09:02:29;19.40;;;9.10;;
68858;SDS011;55864;49.238;8.092;2024-01-30T09:04:31;13.97;;;6.77;;
68858;SDS011;55864;49.238;8.092;2024-01-30T09:06:32;12.27;;;4.80;;
68858;SDS011;55864;49.238;8.092;2024-01-30T09:08:47;13.23;;;5.03;;
68858;SDS011;55864;49.238;8.092;2024-01-30T09:10:47;10.03;;;4.93;;
68858;SDS011;55864;49.238;8.092;2024-01-30T09:12:48;10.90;;;4.60;;
68858;SDS011;55864;49.238;8.092;2024-01-30T09:14:48;10.83;;;4.50;;
68858;SDS011;55864;49.238;8.092;2024-01-30T09:16:49;9.20;;;4.87;;
68858;SDS011;55864;49.238;8.092;2024-01-30T09:18:49;8.87;;;4.20;;
68858;SDS011;55864;49.238;8.092;2024-01-30T09:20:51;12.20;;;4.87;;
68858;SDS011;55864;49.238;8.092;2024-01-30T09:22:52;12.13;;;4.90;;
68858;SDS011;55864;49.238;8.092;2024-01-30T09:24:52;11.97;;;4.50;;
68858;SDS011;55864;49.238;8.092;2024-01-30T09:26:53;8.57;;;4.10;;
68858;SDS011;55864;49.238;8.092;2024-01-30T09:28:53;8.90;;;4.50;;
68858;SDS011;55864;49.238;8.092;2024-01-30T09:30:54;12.40;;;4.30;;
68858;SDS011;55864;49.238;8.092;2024-01-30T09:32:54;11.40;;;4.50;;
68858;SDS011;55864;49.238;8.092;2024-01-30T09:34:55;10.43;;;4.13;;
68858;SDS011;55864;49.238;8.092;2024-01-30T09:36:57;11.07;;;4.70;;
68858;SDS011;55864;49.238;8.092;2024-01-30T09:38:58;10.68;;;4.28;;
68858;SDS011;55864;49.238;8.092;2024-01-30T09:40:59;10.27;;;4.33;;
68858;SDS011;55864;49.238;8.092;2024-01-30T09:43:06;10.93;;;4.30;;
68858;SDS011;55864;49.238;8.092;2024-01-30T09:45:07;11.47;;;4.83;;
68858;SDS011;55864;49.238;8.092;2024-01-30T09:47:08;10.60;;;4.43;;
68858;SDS011;55864;49.238;8.092;2024-01-30T09:49:09;10.67;;;4.50;;
68858;SDS011;55864;49.238;8.092;2024-01-30T09:51:10;10.77;;;4.90;;
68858;SDS011;55864;49.238;8.092;2024-01-30T09:53:12;12.53;;;4.60;;
68858;SDS011;55864;49.238;8.092;2024-01-30T09:55:14;14.38;;;5.93;;
68858;SDS011;55864;49.238;8.092;2024-01-30T09:57:14;12.30;;;5.03;;
68858;SDS011;55864;49.238;8.092;2024-01-30T09:59:15;12.30;;;4.80;;
68858;SDS011;55864;49.238;8.092;2024-01-30T10:01:16;14.20;;;6.83;;
68858;SDS011;55864;49.238;8.092;2024-01-30T10:03:17;15.03;;;8.10;;
68858;SDS011;55864;49.238;8.092;2024-01-30T10:05:18;10.97;;;6.00;;
68858;SDS011;55864;49.238;8.092;2024-01-30T10:07:19;10.60;;;4.30;;
68858;SDS011;55864;49.238;8.092;2024-01-30T10:09:21;10.43;;;4.80;;
68858;SDS011;55864;49.238;8.092;2024-01-30T10:11:21;8.73;;;4.30;;
68858;SDS011;55864;49.238;8.092;2024-01-30T10:13:22;12.90;;;5.10;;
68858;SDS011;55864;49.238;8.092;2024-01-30T10:15:23;13.13;;;5.37;;
68858;SDS011;55864;49.238;8.092;2024-01-30T10:17:25;13.53;;;7.50;;
68858;SDS011;55864;49.238;8.092;2024-01-30T10:19:26;13.67;;;6.57;;
68858;SDS011;55864;49.238;8.092;2024-01-30T10:21:26;17.27;;;9.13;;
68858;SDS011;55864;49.238;8.092;2024-01-30T10:23:28;13.60;;;6.97;;
68858;SDS011;55864;49.238;8.092;2024-01-30T10:25:31;11.47;;;6.57;;
68858;SDS011;55864;49.238;8.092;2024-01-30T10:27:35;10.23;;;5.40;;
68858;SDS011;55864;49.238;8.092;2024-01-30T10:29:35;13.87;;;7.03;;
68858;SDS011;55864;49.238;8.092;2024-01-30T10:31:37;19.07;;;9.43;;
68858;SDS011;55864;49.238;8.092;2024-01-30T10:33:37;13.13;;;6.40;;
68858;SDS011;55864;49.238;8.092;2024-01-30T10:35:38;15.75;;;7.38;;
68858;SDS011;55864;49.238;8.092;2024-01-30T10:37:38;13.85;;;5.53;;
68858;SDS011;55864;49.238;8.092;2024-01-30T10:39:39;14.87;;;6.93;;
68858;SDS011;55864;49.238;8.092;2024-01-30T10:41:43;11.20;;;4.97;;
68858;SDS011;55864;49.238;8.092;2024-01-30T10:43:44;11.93;;;4.90;;
68858;SDS011;55864;49.238;8.092;2024-01-30T10:45:50;9.43;;;4.60;;
68858;SDS011;55864;49.238;8.092;2024-01-30T10:47:56;11.13;;;5.33;;
68858;SDS011;55864;49.238;8.092;2024-01-30T10:49:59;10.95;;;5.10;;
68858;SDS011;55864;49.238;8.092;2024-01-30T10:52:00;16.30;;;5.83;;
68858;SDS011;55864;49.238;8.092;2024-01-30T10:54:01;13.83;;;5.70;;
68858;SDS011;55864;49.238;8.092;2024-01-30T10:56:03;13.90;;;5.07;;
68858;SDS011;55864;49.238;8.092;2024-01-30T10:58:06;10.93;;;5.45;;
68858;SDS011;55864;49.238;8.092;2024-01-30T11:00:08;13.13;;;5.97;;
68858;SDS011;55864;49.238;8.092;2024-01-30T11:02:10;12.47;;;5.90;;
68858;SDS011;55864;49.238;8.092;2024-01-30T11:04:11;10.00;;;4.90;;
68858;SDS011;55864;49.238;8.092;2024-01-30T11:06:12;10.85;;;5.00;;
68858;SDS011;55864;49.238;8.092;2024-01-30T11:08:12;14.43;;;5.07;;
68858;SDS011;55864;49.238;8.092;2024-01-30T11:10:13;12.77;;;5.40;;
68858;SDS011;55864;49.238;8.092;2024-01-30T11:12:14;13.10;;;5.30;;
68858;SDS011;55864;49.238;8.092;2024-01-30T11:14:15;10.03;;;5.60;;
68858;SDS011;55864;49.238;8.092;2024-01-30T11:16:16;10.87;;;5.20;;
68858;SDS011;55864;49.238;8.092;2024-01-30T11:18:23;11.25;;;5.05;;
68858;SDS011;55864;49.238;8.092;2024-01-30T11:20:25;11.48;;;5.18;;
68858;SDS011;55864;49.238;8.092;2024-01-30T11:22:26;11.77;;;6.13;;
68858;SDS011;55864;49.238;8.092;2024-01-30T11:24:27;12.30;;;5.63;;
68858;SDS011;55864;49.238;8.092;2024-01-30T11:26:28;13.23;;;5.87;;
68858;SDS011;55864;49.238;8.092;2024-01-30T11:28:33;13.50;;;5.90;;
68858;SDS011;55864;49.238;8.092;2024-01-30T11:30:35;13.67;;;6.07;;
68858;SDS011;55864;49.238;8.092;2024-01-30T11:32:35;14.63;;;6.03;;
68858;SDS011;55864;49.238;8.092;2024-01-30T11:34:36;11.97;;;6.00;;
68858;SDS011;55864;49.238;8.092;2024-01-30T11:36:41;10.50;;;5.93;;
68858;SDS011;55864;49.238;8.092;2024-01-30T11:38:43;10.45;;;5.60;;
68858;SDS011;55864;49.238;8.092;2024-01-30T11:40:44;10.87;;;5.60;;
68858;SDS011;55864;49.238;8.092;2024-01-30T11:42:44;12.40;;;6.45;;
68858;SDS011;55864;49.238;8.092;2024-01-30T11:44:47;12.93;;;5.88;;
68858;SDS011;55864;49.238;8.092;2024-01-30T11:46:50;12.27;;;5.57;;
68858;SDS011;55864;49.238;8.092;2024-01-30T11:48:51;13.20;;;7.25;;
68858;SDS011;55864;49.238;8.092;2024-01-30T11:50:52;13.93;;;7.50;;
68858;SDS011;55864;49.238;8.092;2024-01-30T11:52:54;12.70;;;6.10;;
68858;SDS011;55864;49.238;8.092;2024-01-30T11:54:56;12.00;;;6.22;;
68858;SDS011;55864;49.238;8.092;2024-01-30T11:56:56;11.70;;;5.40;;
68858;SDS011;55864;49.238;8.092;2024-01-30T11:58:57;10.40;;;5.25;;
68858;SDS011;55864;49.238;8.092;2024-01-30T12:00:57;14.10;;;6.63;;
68858;SDS011;55864;49.238;8.092;2024-01-30T12:02:59;13.85;;;6.82;;